Time;durP1;ratioP1;P1;durP2;ratioP2;P2;SDS_P1;SDS_P2;PMS_P1;PMS_P2;Temp;Humidity;BMP_temperature;BMP_pressure;BME280_temperature;BME280_humidity;BME280_pressure;Samples;Min_cycle;Max_cycle;Signal;HPM_P1;HPM_P2
2022/09/02 00:01:44;;;;;;;17.90;8.98;;;;;;;24.12;100.00;100096.28;5049442;28;20064;-70
2022/09/02 00:04:20;;;;;;;15.63;9.38;;;;;;;24.05;100.00;100104.34;5049606;28;20028;-70
2022/09/02 00:06:47;;;;;;;16.50;9.75;;;;;;;24.08;100.00;100082.31;5049435;28;20395;-70
2022/09/02 00:09:16;;;;;;;15.68;9.10;;;;;;;24.18;100.00;100082.94;5049481;28;20061;-69
2022/09/02 00:11:44;;;;;;;12.52;9.52;;;;;;;24.26;100.00;100083.59;5049977;28;20017;-73
2022/09/02 00:14:14;;;;;;;15.38;9.82;;;;;;;24.45;100.00;100106.84;5052413;28;20066;-73
2022/09/02 00:16:41;;;;;;;16.73;9.15;;;;;;;24.49;100.00;100096.19;5053513;28;20435;-73
2022/09/02 00:19:07;;;;;;;16.00;9.20;;;;;;;24.63;100.00;100102.88;5053311;28;20032;-75
2022/09/02 00:21:33;;;;;;;17.17;9.60;;;;;;;24.50;100.00;100089.13;5053319;28;20028;-72
2022/09/02 00:24:03;;;;;;;16.52;9.20;;;;;;;24.63;100.00;100106.38;5053095;28;20041;-74
2022/09/02 00:26:30;;;;;;;16.15;8.98;;;;;;;24.62;100.00;100104.63;5053207;28;20487;-72
2022/09/02 00:28:56;;;;;;;16.23;9.35;;;;;;;24.64;100.00;100102.81;5053045;28;20051;-73
2022/09/02 00:31:23;;;;;;;14.18;8.77;;;;;;;24.67;99.99;100097.50;5053228;28;20123;-74
2022/09/02 00:33:50;;;;;;;13.55;8.18;;;;;;;24.71;100.00;100098.28;5053112;28;20102;-73
2022/09/02 00:36:16;;;;;;;14.45;8.88;;;;;;;24.75;100.00;100096.41;5035396;28;20017;-72
2022/09/02 00:38:42;;;;;;;14.90;8.95;;;;;;;24.80;99.63;100097.16;5052834;28;20095;-72
2022/09/02 00:41:10;;;;;;;13.88;8.85;;;;;;;24.75;98.87;100085.84;5052701;28;20025;-72
2022/09/02 00:43:54;;;;;;;15.02;8.48;;;;;;;24.85;99.33;100096.13;5052965;28;20039;-73
2022/09/02 00:46:23;;;;;;;17.55;8.73;;;;;;;24.85;98.00;100096.13;5053093;28;20025;-72
2022/09/02 00:49:11;;;;;;;13.88;8.05;;;;;;;24.86;96.69;100105.78;5052825;28;20036;-75
2022/09/02 00:51:46;;;;;;;14.60;8.32;;;;;;;24.68;99.00;100078.09;5052532;28;20108;-72
2022/09/02 00:54:14;;;;;;;14.05;8.35;;;;;;;24.76;98.21;100096.41;5052822;28;20154;-72
2022/09/02 00:56:42;;;;;;;12.93;7.90;;;;;;;24.77;98.18;100107.81;5052686;28;20479;-72
2022/09/02 00:59:11;;;;;;;15.35;8.32;;;;;;;24.82;98.14;100103.25;5052423;28;20025;-72
2022/09/02 01:01:36;;;;;;;15.43;8.77;;;;;;;24.87;98.72;100107.50;5052589;28;20032;-72
2022/09/02 01:04:02;;;;;;;15.68;8.30;;;;;;;24.82;97.58;100096.22;5052407;28;20025;-72
2022/09/02 01:06:31;;;;;;;15.38;8.73;;;;;;;24.88;98.61;100105.72;5052563;28;20044;-74
2022/09/02 01:09:06;;;;;;;15.52;8.45;;;;;;;24.62;99.71;100096.72;5052505;28;20140;-74
2022/09/02 01:11:46;;;;;;;14.85;9.52;;;;;;;24.53;99.65;100102.25;5052209;28;20424;-72
2022/09/02 01:14:13;;;;;;;12.35;9.32;;;;;;;24.28;100.00;100087.06;5052316;28;20071;-71
2022/09/02 01:16:48;;;;;;;18.45;9.18;;;;;;;24.00;100.00;100073.72;5052298;28;20041;-73
2022/09/02 01:19:22;;;;;;;14.52;8.70;;;;;;;24.03;100.00;100097.38;5052244;28;20377;-71
2022/09/02 01:21:51;;;;;;;14.82;8.35;;;;;;;24.01;100.00;100096.53;5052005;28;20070;-72
2022/09/02 01:24:19;;;;;;;16.80;8.85;;;;;;;23.80;100.00;100067.16;5051720;28;20025;-72
2022/09/02 01:26:45;;;;;;;14.20;8.65;;;;;;;23.89;100.00;100097.69;5052135;28;20039;-72
2022/09/02 01:29:10;;;;;;;15.18;9.95;;;;;;;23.86;100.00;100096.00;5051945;28;20143;-75
2022/09/02 01:31:38;;;;;;;14.88;8.95;;;;;;;23.72;100.00;100077.84;5033198;28;20060;-71
2022/09/02 01:34:05;;;;;;;14.38;9.23;;;;;;;23.78;100.00;100097.94;5052031;28;20625;-76
2022/09/02 01:36:31;;;;;;;13.80;8.50;;;;;;;23.81;100.00;100091.72;5033177;28;20069;-72
2022/09/02 01:38:57;;;;;;;12.52;8.57;;;;;;;23.78;100.00;100095.31;5051911;28;20017;-72
2022/09/02 01:41:23;;;;;;;13.52;9.38;;;;;;;23.79;100.00;100098.78;5051894;28;20044;-72
2022/09/02 01:43:48;;;;;;;17.67;9.30;;;;;;;23.82;100.00;100096.09;5050574;28;20559;-71
2022/09/02 01:46:14;;;;;;;14.50;9.15;;;;;;;23.77;100.00;100098.00;5051919;28;20029;-73
2022/09/02 01:48:40;;;;;;;13.35;9.40;;;;;;;23.74;100.00;100091.03;5051718;28;20479;-73
2022/09/02 01:51:06;;;;;;;13.48;8.95;;;;;;;23.54;100.00;100073.91;5051678;28;20033;-70
2022/09/02 01:53:32;;;;;;;15.55;9.52;;;;;;;23.54;100.00;100073.91;5051726;28;20029;-70
2022/09/02 01:55:58;;;;;;;14.02;8.95;;;;;;;23.65;100.00;100093.84;5051471;28;20032;-73
2022/09/02 01:58:23;;;;;;;19.13;10.13;;;;;;;23.68;100.00;100096.44;5051434;28;20029;-71
2022/09/02 02:00:49;;;;;;;14.60;8.85;;;;;;;23.57;100.00;100094.03;5051339;28;20085;-74
2022/09/02 02:03:14;;;;;;;12.13;8.95;;;;;;;23.50;100.00;100087.16;5051556;28;20059;-74
2022/09/02 02:05:41;;;;;;;17.35;9.55;;;;;;;23.46;100.00;100091.63;5051595;28;20045;-74
2022/09/02 02:08:07;;;;;;;15.20;8.93;;;;;;;23.31;100.00;100063.88;5051791;28;20025;-69
2022/09/02 02:10:33;;;;;;;16.45;8.88;;;;;;;23.39;100.00;100095.31;5051149;28;20057;-75
2022/09/02 02:13:00;;;;;;;15.60;9.18;;;;;;;23.34;100.00;100090.16;5051159;28;20376;-73
2022/09/02 02:15:26;;;;;;;13.75;9.10;;;;;;;23.31;100.00;100090.22;5050875;28;20120;-74
2022/09/02 02:17:51;;;;;;;15.40;9.00;;;;;;;23.23;100.00;100079.00;5051125;28;20104;-73
2022/09/02 02:20:19;;;;;;;12.93;8.70;;;;;;;23.28;100.00;100092.91;5051056;28;20033;-72
2022/09/02 02:23:06;;;;;;;15.70;8.98;;;;;;;23.20;100.00;100090.47;5028662;28;20408;-71
2022/09/02 02:25:31;;;;;;;16.13;9.43;;;;;;;23.21;100.00;100096.59;5012393;28;20037;-71
2022/09/02 02:27:57;;;;;;;14.88;9.13;;;;;;;23.21;100.00;100094.81;5028835;28;20491;-73
2022/09/02 02:30:23;;;;;;;12.02;8.80;;;;;;;23.19;100.00;100087.84;5028563;28;20119;-74
2022/09/02 02:32:48;;;;;;;15.07;9.50;;;;;;;23.08;100.00;100075.75;5028465;28;20092;-73
2022/09/02 02:35:16;;;;;;;14.57;8.57;;;;;;;23.17;100.00;100087.03;5027523;28;20065;-72
2022/09/02 02:37:42;;;;;;;15.82;9.35;;;;;;;23.11;100.00;100074.81;5028282;28;20056;-73
2022/09/02 02:40:10;;;;;;;12.55;8.75;;;;;;;23.14;100.00;100087.03;5028176;28;20025;-72
2022/09/02 02:42:38;;;;;;;14.15;9.05;;;;;;;23.11;100.00;100085.34;5028314;28;20037;-75
2022/09/02 02:45:08;;;;;;;17.23;9.15;;;;;;;23.08;100.00;100085.41;5028363;28;20040;-73
2022/09/02 02:47:38;;;;;;;13.88;8.75;;;;;;;23.02;100.00;100089.03;5008522;28;20030;-71
2022/09/02 02:50:05;;;;;;;14.55;9.65;;;;;;;22.97;100.00;100080.38;5008595;28;20117;-73
2022/09/02 02:52:31;;;;;;;13.25;9.43;;;;;;;22.98;100.00;100090.00;5027731;28;20115;-74
2022/09/02 02:54:56;;;;;;;13.38;9.30;;;;;;;22.95;100.00;100071.63;5047006;28;20107;-75
2022/09/02 02:57:21;;;;;;;15.40;9.25;;;;;;;22.93;100.00;100079.56;5046951;28;20036;-72
2022/09/02 02:59:47;;;;;;;12.68;9.10;;;;;;;22.70;100.00;100043.16;5050314;28;20048;-72
2022/09/02 03:02:13;;;;;;;12.60;9.23;;;;;;;22.90;100.00;100077.00;5046721;28;20028;-76
2022/09/02 03:04:40;;;;;;;14.05;9.90;;;;;;;22.91;100.00;100072.59;5047751;28;20411;-74
2022/09/02 03:07:06;;;;;;;18.60;9.90;;;;;;;22.73;100.00;100043.13;5050042;28;20415;-72
2022/09/02 03:09:32;;;;;;;14.35;9.40;;;;;;;22.89;100.00;100075.28;5050218;28;20059;-71
2022/09/02 03:11:57;;;;;;;16.70;9.23;;;;;;;22.87;100.00;100069.16;5031553;28;20037;-75
2022/09/02 03:14:23;;;;;;;13.20;9.80;;;;;;;22.87;100.00;100071.78;5050224;28;20075;-74
2022/09/02 03:16:49;;;;;;;14.25;9.38;;;;;;;22.90;100.00;100065.59;5050255;28;20032;-73
2022/09/02 03:19:14;;;;;;;13.18;9.25;;;;;;;22.96;100.00;100064.63;5049973;28;20032;-73
2022/09/02 03:21:41;;;;;;;18.10;9.65;;;;;;;22.89;100.00;100062.09;5049946;28;20403;-77
2022/09/02 03:24:08;;;;;;;22.13;9.57;;;;;;;22.96;100.00;100069.88;5050265;28;20033;-73
2022/09/02 03:26:33;;;;;;;16.70;9.57;;;;;;;22.72;100.00;100024.75;5050048;28;20037;-71
2022/09/02 03:28:58;;;;;;;15.73;9.38;;;;;;;22.89;100.00;100055.97;5049961;28;20466;-74
2022/09/02 03:31:26;;;;;;;25.30;9.55;;;;;;;22.78;100.00;100040.41;5050161;28;20029;-75
2022/09/02 03:33:51;;;;;;;20.70;9.80;;;;;;;22.96;100.00;100068.09;5050114;28;20044;-75
2022/09/02 03:36:25;;;;;;;23.83;9.65;;;;;;;23.01;100.00;100070.66;5049993;28;20032;-76
2022/09/02 03:38:50;;;;;;;20.63;9.15;;;;;;;23.03;100.00;100074.09;5049674;28;20546;-78
2022/09/02 03:41:16;;;;;;;17.10;8.68;;;;;;;22.98;100.00;100065.44;5051332;28;20074;-77
2022/09/02 03:43:41;;;;;;;17.90;8.80;;;;;;;22.99;100.00;100080.31;5050032;28;20033;-75
2022/09/02 03:46:08;;;;;;;15.98;8.70;;;;;;;22.96;100.00;100081.25;5049779;28;20078;-73
2022/09/02 03:48:34;;;;;;;13.02;8.50;;;;;;;22.97;100.00;100087.38;5052010;28;20040;-79
2022/09/02 03:51:01;;;;;;;15.45;9.00;;;;;;;22.90;100.00;100081.38;5053387;28;20025;-77
2022/09/02 03:53:26;;;;;;;15.05;8.23;;;;;;;22.82;100.00;100083.28;5053391;28;20086;-73
2022/09/02 03:55:52;;;;;;;14.40;8.82;;;;;;;22.77;100.00;100086.88;5053091;28;20029;-77
2022/09/02 03:58:18;;;;;;;15.57;9.60;;;;;;;22.75;100.00;100083.44;5053147;28;20475;-75
2022/09/02 04:00:43;;;;;;;14.57;9.93;;;;;;;22.86;100.00;100103.41;5053340;28;20057;-74
2022/09/02 04:03:09;;;;;;;19.95;10.70;;;;;;;22.83;100.00;100106.09;5053439;28;20029;-79
2022/09/02 04:05:34;;;;;;;20.50;15.93;;;;;;;22.86;100.00;100106.91;5053826;28;20025;-80
2022/09/02 04:08:00;;;;;;;17.63;14.52;;;;;;;22.75;100.00;100096.59;5053743;28;20443;-79
2022/09/02 04:10:26;;;;;;;14.88;11.65;;;;;;;22.80;100.00;100106.16;5053546;28;20114;-76
2022/09/02 04:12:52;;;;;;;12.98;10.55;;;;;;;22.59;100.00;100080.22;5053393;28;20025;-78
2022/09/02 04:15:19;;;;;;;15.95;9.55;;;;;;;22.77;100.00;100110.56;5043185;28;20064;-77
2022/09/02 04:17:45;;;;;;;18.20;10.57;;;;;;;22.83;100.00;100108.72;5048030;28;20028;-74
2022/09/02 04:20:12;;;;;;;15.00;9.25;;;;;;;22.65;100.00;100081.00;5053374;28;20095;-74
2022/09/02 04:22:38;;;;;;;16.25;9.38;;;;;;;22.91;100.00;100110.31;5053293;28;20036;-75
2022/09/02 04:25:06;;;;;;;18.38;12.05;;;;;;;22.93;100.00;100097.13;5052965;28;20433;-78
2022/09/02 04:27:31;;;;;;;17.80;10.55;;;;;;;23.06;100.00;100121.44;5053416;28;20032;-76
2022/09/02 04:29:57;;;;;;;17.13;9.70;;;;;;;23.09;100.00;100114.34;5052030;28;20021;-76
2022/09/02 04:32:22;;;;;;;14.75;9.95;;;;;;;23.12;100.00;100112.56;5051633;28;20022;-77
2022/09/02 04:34:48;;;;;;;21.35;10.30;;;;;;;23.15;100.00;100108.06;5053015;28;20029;-77
2022/09/02 04:37:14;;;;;;;15.32;9.27;;;;;;;23.22;100.00;100103.59;5034472;28;20447;-79
2022/09/02 04:39:40;;;;;;;38.22;14.85;;;;;;;23.15;100.00;100080.88;5053077;28;20167;-79
2022/09/02 04:42:05;;;;;;;32.72;13.80;;;;;;;23.34;100.00;100108.59;5053165;28;20045;-79
2022/09/02 04:44:31;;;;;;;30.73;17.05;;;;;;;23.16;100.00;100072.97;5052866;28;20064;-79
2022/09/02 04:46:57;;;;;;;25.35;13.35;;;;;;;23.45;100.00;100115.38;5052805;28;20502;-76
2022/09/02 04:49:22;;;;;;;32.85;16.55;;;;;;;23.52;100.00;100120.47;5052941;28;20055;-79
2022/09/02 04:51:49;;;;;;;36.35;20.25;;;;;;;23.56;100.00;100121.28;5053109;28;20079;-78
2022/09/02 04:54:14;;;;;;;37.47;18.80;;;;;;;23.53;100.00;100113.47;5051446;28;20033;-74
2022/09/02 04:56:40;;;;;;;33.50;16.63;;;;;;;23.59;100.00;100123.88;5051803;28;20043;-77
2022/09/02 04:59:06;;;;;;;51.75;22.10;;;;;;;23.63;100.00;100124.63;5051764;28;20021;-80
2022/09/02 05:01:33;;;;;;;40.95;24.33;;;;;;;23.67;100.00;100124.53;5052531;28;20033;-79
2022/09/02 05:04:01;;;;;;;37.47;19.90;;;;;;;23.62;100.00;100107.13;5052719;28;20035;-79
2022/09/02 05:06:28;;;;;;;30.35;14.93;;;;;;;23.63;100.00;100130.78;5052633;28;20033;-78
2022/09/02 05:08:55;;;;;;;28.15;12.60;;;;;;;23.71;100.00;100123.59;5052478;28;20076;-75
2022/09/02 05:11:27;;;;;;;30.17;12.95;;;;;;;23.78;100.00;100118.19;5052331;28;20088;-81
2022/09/02 05:13:53;;;;;;;21.45;10.05;;;;;;;23.79;100.00;100133.06;5052314;28;20039;-77
2022/09/02 05:16:22;;;;;;;32.85;11.32;;;;;;;23.85;100.00;100128.53;5052049;28;20029;-76
2022/09/02 05:18:49;;;;;;;23.70;9.80;;;;;;;23.84;100.00;100124.16;5052610;28;20064;-79
2022/09/02 05:21:15;;;;;;;25.33;10.30;;;;;;;23.88;100.00;100127.59;5052365;28;20040;-75
2022/09/02 05:23:42;;;;;;;27.45;9.48;;;;;;;24.01;100.00;100133.47;5052302;28;20017;-75
2022/09/02 05:26:11;;;;;;;26.15;10.13;;;;;;;24.09;100.00;100138.53;5052270;28;20097;-79
2022/09/02 05:28:37;;;;;;;31.13;11.27;;;;;;;23.89;100.00;100102.97;5052139;28;20036;-77
2022/09/02 05:31:05;;;;;;;26.02;10.25;;;;;;;24.14;100.00;100145.44;5052184;28;20271;-79
2022/09/02 05:33:39;;;;;;;27.25;9.88;;;;;;;24.15;100.00;100141.03;5050730;28;20032;-76
2022/09/02 05:36:06;;;;;;;33.33;10.25;;;;;;;24.13;100.00;100124.41;5052137;28;20025;-76
2022/09/02 05:38:31;;;;;;;22.90;9.65;;;;;;;24.14;100.00;100131.38;5051847;28;20115;-75
2022/09/02 05:40:58;;;;;;;23.00;9.18;;;;;;;24.18;99.68;100135.69;5052019;28;20025;-77
2022/09/02 05:43:24;;;;;;;27.25;9.77;;;;;;;23.98;100.00;100100.13;5051700;28;20025;-77
2022/09/02 05:45:50;;;;;;;23.50;10.40;;;;;;;24.15;100.00;100123.44;5051723;28;20032;-78
2022/09/02 05:51:04;;;;;;;19.38;8.45;;;;;;;24.22;99.49;100118.88;5051962;28;20090;-78
2022/09/02 05:53:30;;;;;;;24.13;9.88;;;;;;;24.22;100.00;100119.75;5051464;28;20568;-77
2022/09/02 05:55:56;;;;;;;26.92;10.20;;;;;;;24.33;100.00;100124.75;5051626;28;20021;-78
2022/09/02 05:58:21;;;;;;;30.35;10.05;;;;;;;24.35;99.68;100128.22;5051568;28;20029;-74
2022/09/02 06:00:47;;;;;;;17.20;8.20;;;;;;;24.33;99.29;100102.78;5051400;28;20074;-77
2022/09/02 06:03:12;;;;;;;19.15;7.75;;;;;;;24.47;98.30;100128.81;5051506;28;20021;-77
2022/09/02 06:05:39;;;;;;;17.13;8.38;;;;;;;24.50;99.96;100129.59;5051380;28;20037;-74
2022/09/02 06:08:05;;;;;;;23.60;7.60;;;;;;;24.60;97.16;100135.50;5051662;28;20029;-74
2022/09/02 06:10:31;;;;;;;16.98;7.03;;;;;;;24.65;97.79;100136.28;5051054;28;20056;-75
2022/09/02 06:12:56;;;;;;;15.60;6.97;;;;;;;24.65;98.10;100123.06;5050096;28;20032;-78
2022/09/02 06:15:22;;;;;;;11.00;6.68;;;;;;;24.68;98.52;100127.41;5051267;28;20033;-78
2022/09/02 06:17:47;;;;;;;10.25;6.07;;;;;;;24.39;98.37;100066.53;5050358;28;20056;-77
2022/09/02 06:20:13;;;;;;;13.02;6.50;;;;;;;24.73;97.76;100119.38;5051134;28;20025;-80
2022/09/02 06:22:38;;;;;;;12.55;6.38;;;;;;;24.63;98.03;100101.09;5050988;28;20020;-77
2022/09/02 06:25:04;;;;;;;8.07;5.90;;;;;;;24.79;98.06;100130.63;5050947;28;20407;-77
2022/09/02 06:27:29;;;;;;;17.05;6.40;;;;;;;24.79;96.82;100132.41;5050953;28;20753;-76
2022/09/02 06:29:55;;;;;;;11.80;6.57;;;;;;;24.82;97.72;100133.19;5051122;28;20029;-79
2022/09/02 06:32:20;;;;;;;15.07;6.65;;;;;;;24.86;97.10;100128.66;5050781;28;20471;-78
2022/09/02 06:34:46;;;;;;;11.88;6.40;;;;;;;24.81;96.57;100107.69;5050865;28;20079;-76
2022/09/02 06:37:12;;;;;;;11.80;6.50;;;;;;;24.97;96.57;100125.72;5050590;28;20024;-78
2022/09/02 06:39:42;;;;;;;10.48;6.60;;;;;;;25.13;98.33;100142.00;5050919;28;20031;-78
2022/09/02 06:42:08;;;;;;;12.98;6.10;;;;;;;25.22;95.67;100139.09;5050914;28;20021;-78
2022/09/02 06:44:33;;;;;;;15.68;6.40;;;;;;;25.31;96.16;100136.19;5050708;28;20025;-77
2022/09/02 06:46:59;;;;;;;10.38;6.68;;;;;;;25.39;98.29;100124.56;5049325;28;20454;-77
2022/09/02 06:49:27;;;;;;;13.27;5.95;;;;;;;25.48;96.08;100130.44;5050685;28;20514;-76
2022/09/02 06:51:55;;;;;;;12.20;6.68;;;;;;;25.48;96.76;100113.69;5050338;28;20024;-78
2022/09/02 06:54:22;;;;;;;13.18;6.72;;;;;;;25.75;94.81;100127.00;5050584;28;20067;-75
2022/09/02 06:56:49;;;;;;;12.43;6.03;;;;;;;25.77;92.32;100133.97;5050723;28;20487;-77
2022/09/02 06:59:15;;;;;;;10.75;6.35;;;;;;;25.80;93.93;100127.69;5050545;28;20056;-78
2022/09/02 07:01:41;;;;;;;8.40;5.55;;;;;;;25.91;93.65;100122.09;5031852;28;20067;-78
2022/09/02 07:06:53;;;;;;;12.18;6.90;;;;;;;26.14;91.40;100131.91;5050628;28;20039;-78
2022/09/02 07:09:22;;;;;;;14.23;6.65;;;;;;;26.16;91.55;100127.44;5050424;28;20052;-76
2022/09/02 07:11:48;;;;;;;11.20;5.25;;;;;;;26.18;88.50;100128.25;5050461;28;20029;-76
2022/09/02 07:14:16;;;;;;;10.52;5.57;;;;;;;26.25;87.68;100129.78;5050496;28;20029;-77
2022/09/02 07:16:48;;;;;;;10.88;6.60;;;;;;;26.15;91.82;100109.84;5050365;28;20094;-79
2022/09/02 07:19:14;;;;;;;8.48;5.78;;;;;;;26.36;87.69;100139.16;5050248;28;20461;-78
2022/09/02 07:21:40;;;;;;;10.45;6.07;;;;;;;26.34;89.05;100133.03;5031839;28;20124;-78
2022/09/02 07:24:08;;;;;;;11.73;5.63;;;;;;;26.43;88.42;100146.84;5054618;28;20501;-77
2022/09/02 07:26:33;;;;;;;10.27;5.70;;;;;;;26.42;86.81;100153.03;5054477;28;20048;-76
2022/09/02 07:28:59;;;;;;;12.20;5.70;;;;;;;26.51;87.18;100157.16;5054778;28;20067;-79
2022/09/02 07:31:29;;;;;;;8.07;4.72;;;;;;;26.27;83.51;100146.47;5054159;28;20090;-76
2022/09/02 07:33:58;;;;;;;9.32;5.88;;;;;;;26.09;85.04;100147.09;5054217;28;20036;-76
2022/09/02 07:36:24;;;;;;;;;;;;;;;25.87;84.66;100150.41;5054800;28;20053;-74
2022/09/02 07:38:50;;;;;;;12.52;5.78;;;;;;;25.72;87.72;100145.56;5054147;28;19974;-78
2022/09/02 07:41:15;;;;;;;13.48;5.82;;;;;;;25.71;88.45;100130.63;5054234;28;20040;-80
2022/09/02 07:43:41;;;;;;;11.57;5.30;;;;;;;25.91;87.72;100149.38;5054020;28;20029;-74
2022/09/02 07:46:06;;;;;;;7.80;5.75;;;;;;;25.96;86.03;100150.09;5053829;28;20060;-76
2022/09/02 07:48:33;;;;;;;9.20;6.00;;;;;;;26.06;87.98;100141.91;5054146;28;20029;-79
2022/09/02 07:50:58;;;;;;;12.48;5.70;;;;;;;26.13;88.37;100146.06;5053845;28;20475;-76
2022/09/02 07:53:25;;;;;;;8.55;5.25;;;;;;;26.24;84.12;100158.94;5053835;28;20033;-79
2022/09/02 07:55:50;;;;;;;8.43;5.25;;;;;;;26.16;82.54;100167.13;5053667;28;20039;-77
2022/09/02 07:58:18;;;;;;;8.73;5.07;;;;;;;26.07;83.81;100154.19;5053878;28;20028;-79
2022/09/02 08:00:44;;;;;;;7.68;5.18;;;;;;;25.76;84.49;100149.88;5053702;28;20082;-73
2022/09/02 08:03:11;;;;;;;8.60;5.30;;;;;;;25.86;83.88;100163.66;5053937;28;20716;-76
2022/09/02 08:05:37;;;;;;;10.68;5.57;;;;;;;25.90;83.81;100163.50;5053699;28;20025;-76
2022/09/02 08:08:04;;;;;;;8.38;5.38;;;;;;;25.93;85.41;100144.03;5053620;28;20032;-76
2022/09/02 08:10:35;;;;;;;11.45;5.90;;;;;;;26.04;87.98;100144.53;5052334;28;20092;-77
2022/09/02 08:13:01;;;;;;;10.27;5.85;;;;;;;26.22;85.78;100152.81;5053529;28;20083;-80
2022/09/02 08:15:28;;;;;;;10.43;5.88;;;;;;;26.37;83.30;100154.09;5053143;28;20041;-77
2022/09/02 08:17:57;;;;;;;11.27;5.10;;;;;;;26.30;81.98;100122.53;5053664;28;20120;-77
2022/09/02 08:20:23;;;;;;;8.20;5.00;;;;;;;26.67;82.64;100154.84;5053411;28;20483;-77
2022/09/02 08:22:49;;;;;;;11.32;5.35;;;;;;;26.71;82.96;100145.84;5053257;28;20238;-76
2022/09/02 08:25:17;;;;;;;15.77;6.40;;;;;;;26.76;84.67;100137.78;5053277;28;20052;-74
2022/09/02 08:27:43;;;;;;;9.63;6.13;;;;;;;26.83;82.89;100144.59;5053229;28;20475;-76
2022/09/02 08:30:09;;;;;;;10.68;5.78;;;;;;;26.74;79.48;100115.78;5053311;28;20411;-77
2022/09/02 08:32:36;;;;;;;12.07;5.65;;;;;;;26.88;79.71;100144.41;5053193;28;20119;-76
2022/09/02 08:35:03;;;;;;;10.63;5.35;;;;;;;26.72;79.28;100141.44;5052003;28;20541;-73
2022/09/02 08:37:31;;;;;;;10.98;5.50;;;;;;;26.52;80.04;100127.13;5052942;28;20033;-76
2022/09/02 08:39:57;;;;;;;8.30;4.72;;;;;;;26.71;78.56;100134.41;5053200;28;20139;-77
2022/09/02 08:42:34;;;;;;;11.05;5.72;;;;;;;26.70;78.64;100130.03;5052884;28;20573;-76
2022/09/02 08:45:27;;;;;;;10.32;5.40;;;;;;;26.79;78.71;100135.91;5053079;28;20037;-76
2022/09/02 08:48:08;;;;;;;13.23;5.55;;;;;;;26.86;74.69;100122.44;5010803;28;20050;-78
2022/09/02 08:50:36;;;;;;;9.65;4.90;;;;;;;26.78;74.92;100125.34;5010763;28;20046;-75
2022/09/02 08:53:20;;;;;;;8.27;5.55;;;;;;;26.92;72.02;100123.06;5010553;28;20042;-76
2022/09/02 08:55:52;;;;;;;9.30;4.93;;;;;;;27.05;70.72;100114.66;5010766;28;20026;-76
2022/09/02 08:58:21;;;;;;;9.23;5.50;;;;;;;27.11;72.35;100125.03;5010563;28;20184;-74
2022/09/02 09:01:11;;;;;;;9.65;4.75;;;;;;;27.33;72.37;100110.97;5010640;28;20048;-76
2022/09/02 09:04:08;;;;;;;9.10;5.32;;;;;;;27.37;72.50;100104.63;4971602;28;20096;-78
2022/09/02 09:07:04;;;;;;;9.70;5.10;;;;;;;27.41;72.42;100103.63;4971456;28;20046;-76
2022/09/02 09:09:51;;;;;;;8.57;5.20;;;;;;;27.42;71.19;100092.09;4971238;28;20054;-76
2022/09/02 09:12:41;;;;;;;9.20;5.20;;;;;;;27.47;71.90;100055.66;4971397;28;20031;-76
2022/09/02 09:15:25;;;;;;;10.60;5.30;;;;;;;27.57;70.22;100087.97;4971249;28;20117;-77
2022/09/02 09:17:56;;;;;;;9.98;5.93;;;;;;;27.36;69.44;100041.94;4971189;28;20051;-74
2022/09/02 09:20:28;;;;;;;8.23;4.85;;;;;;;27.55;68.23;100042.09;4971187;28;20038;-78
2022/09/02 09:22:56;;;;;;;9.52;5.22;;;;;;;28.04;69.73;100077.22;4971139;28;20027;-78
2022/09/02 09:25:28;;;;;;;10.73;5.10;;;;;;;28.27;65.99;100058.59;4957735;28;20091;-75
2022/09/02 09:27:58;;;;;;;9.05;4.72;;;;;;;28.49;63.17;100056.72;4951696;29;20083;-78
2022/09/02 09:30:24;;;;;;;7.88;4.85;;;;;;;28.39;62.72;100028.88;4951763;29;20039;-77
2022/09/02 09:32:54;;;;;;;8.13;4.45;;;;;;;28.40;62.19;100041.22;4951770;29;20075;-76
2022/09/02 09:35:21;;;;;;;11.40;4.90;;;;;;;28.71;64.93;100045.16;4951677;29;20047;-77
2022/09/02 09:37:49;;;;;;;10.07;4.80;;;;;;;28.91;62.37;100054.88;4951794;29;20498;-78
2022/09/02 09:40:18;;;;;;;10.40;4.57;;;;;;;28.93;58.83;100049.50;4981391;28;20036;-77
2022/09/02 09:42:45;;;;;;;6.72;4.72;;;;;;;28.99;60.87;100054.53;5051785;28;20025;-75
2022/09/02 09:45:27;;;;;;;10.55;4.80;;;;;;;29.18;61.14;100049.22;5051913;28;20395;-76
2022/09/02 09:48:18;;;;;;;15.05;5.53;;;;;;;29.37;65.88;100038.59;5051911;28;20166;-74
2022/09/02 09:50:45;;;;;;;9.20;4.65;;;;;;;29.33;59.79;100005.97;5051614;28;20036;-75
2022/09/02 09:53:16;;;;;;;9.23;4.55;;;;;;;29.66;59.36;100033.66;5051559;28;20028;-80
2022/09/02 09:55:57;;;;;;;7.85;4.70;;;;;;;29.76;59.19;100021.59;5051942;28;20033;-79
2022/09/02 09:58:29;;;;;;;10.15;4.90;;;;;;;29.44;58.15;100018.75;5049421;28;20115;-77
2022/09/02 10:00:59;;;;;;;10.20;5.07;;;;;;;29.01;60.76;100026.06;5049131;28;20029;-75
2022/09/02 10:03:29;;;;;;;11.70;5.00;;;;;;;29.04;60.10;100024.13;5051179;28;20545;-76
2022/09/02 10:05:57;;;;;;;8.13;4.65;;;;;;;29.10;57.94;100027.44;5051843;28;20116;-77
2022/09/02 10:08:27;;;;;;;10.00;4.38;;;;;;;29.09;58.51;100021.28;5050849;28;20032;-78
2022/09/02 10:11:02;;;;;;;12.15;5.32;;;;;;;29.22;59.57;100013.56;5051355;28;20048;-78
2022/09/02 10:13:30;;;;;;;11.85;4.95;;;;;;;29.46;57.36;100016.00;5051084;28;20493;-76
2022/09/02 10:16:26;;;;;;;11.57;4.70;;;;;;;29.84;54.79;100011.41;5051172;28;20032;-78
2022/09/02 10:18:57;;;;;;;9.45;4.85;;;;;;;29.65;54.50;99973.41;5051336;28;20033;-77
2022/09/02 10:21:38;;;;;;;9.35;4.55;;;;;;;30.17;54.10;100017.81;5049256;28;20534;-78
2022/09/02 10:24:25;;;;;;;7.97;4.50;;;;;;;30.33;54.80;100008.06;5041365;28;20106;-80
2022/09/02 10:26:56;;;;;;;11.02;4.55;;;;;;;30.29;52.31;100005.63;5050116;28;20112;-77
2022/09/02 10:29:40;;;;;;;9.95;4.85;;;;;;;30.42;52.59;100009.38;5048918;28;20025;-77
2022/09/02 10:32:11;;;;;;;8.93;5.10;;;;;;;30.54;52.40;99993.69;5049913;28;20036;-77
2022/09/02 10:35:33;;;;;;;8.90;4.72;;;;;;;30.69;51.30;99994.66;5049386;28;20033;-76
2022/09/02 10:38:20;;;;;;;11.98;5.15;;;;;;;30.83;50.05;99968.13;4988609;28;20037;-75
2022/09/02 10:40:53;;;;;;;10.38;4.95;;;;;;;31.10;44.39;99959.53;4988433;28;20127;-74
2022/09/02 10:43:44;;;;;;;9.98;4.50;;;;;;;31.48;46.71;99982.28;4988076;28;20150;-75
2022/09/02 10:46:16;;;;;;;7.38;4.18;;;;;;;31.21;46.11;99975.78;4986998;28;20050;-74
2022/09/02 10:49:00;;;;;;;10.65;4.72;;;;;;;31.41;49.02;99979.97;4987378;28;20027;-76
2022/09/02 10:52:07;;;;;;;9.32;4.70;;;;;;;31.56;47.56;99982.69;4986448;28;20042;-71
2022/09/02 10:54:46;;;;;;;9.50;4.90;;;;;;;31.85;48.00;99988.13;4929047;29;20058;-73
2022/09/02 10:57:19;;;;;;;8.05;4.72;;;;;;;32.05;46.53;99973.59;4928614;29;20035;-71
2022/09/02 11:00:15;;;;;;;7.72;4.47;;;;;;;31.68;45.95;99971.34;4927658;29;20423;-73
2022/09/02 11:02:44;;;;;;;8.63;4.80;;;;;;;31.71;46.45;99972.97;4892577;29;20040;-72
2022/09/02 11:05:24;;;;;;;10.80;4.68;;;;;;;31.94;45.96;99972.44;4891529;29;20051;-75
2022/09/02 11:08:00;;;;;;;11.80;4.18;;;;;;;31.92;44.79;99942.28;4891410;29;20044;-73
2022/09/02 11:10:40;;;;;;;9.70;4.93;;;;;;;32.05;50.33;99962.91;4874919;28;20052;-75
2022/09/02 11:13:08;;;;;;;8.90;4.70;;;;;;;31.81;45.16;99960.78;4948401;29;20035;-74
2022/09/02 11:15:56;;;;;;;8.75;4.40;;;;;;;31.72;44.85;99964.00;4948273;29;20129;-74
2022/09/02 11:18:34;;;;;;;8.70;4.95;;;;;;;31.58;45.57;99914.09;4932418;29;20039;-76
2022/09/02 11:21:10;;;;;;;8.95;5.05;;;;;;;32.07;45.35;99942.31;4948571;29;20023;-73
2022/09/02 11:23:35;;;;;;;8.63;4.38;;;;;;;31.73;45.61;99931.03;4948357;29;20449;-73
2022/09/02 11:26:12;;;;;;;7.55;5.05;;;;;;;31.97;47.06;99939.34;4948376;29;20039;-73
2022/09/02 11:28:47;;;;;;;9.13;5.57;;;;;;;32.35;46.85;99936.16;4949528;28;20059;-73
2022/09/02 11:31:37;;;;;;;11.55;7.10;;;;;;;32.37;48.74;99923.53;4975646;28;20050;-72